createdAt,value
2023-08-15T03:51:47.389Z,132.00
2023-08-15T03:52:45.819Z,140.00
2023-08-15T03:53:47.236Z,156.00
2023-08-15T03:54:48.624Z,176.00
2023-08-15T03:55:50.059Z,192.00
2023-08-15T03:56:51.452Z,208.00
2023-08-15T03:57:52.832Z,228.00
2023-08-15T03:58:54.222Z,248.00
2023-08-15T03:59:55.621Z,272.00
2023-08-15T04:00:57.029Z,292.00
2023-08-15T04:01:59.356Z,316.00
2023-08-15T04:02:59.808Z,340.00
2023-08-15T04:04:01.288Z,364.00
2023-08-15T04:05:02.701Z,392.00
2023-08-15T04:06:04.095Z,420.00
2023-08-15T04:07:05.513Z,448.00
2023-08-15T04:08:06.938Z,480.00
2023-08-15T04:09:08.352Z,508.00
2023-08-15T04:10:09.725Z,544.00
2023-08-15T04:11:11.131Z,576.00
2023-08-15T04:12:12.526Z,612.00
2023-08-15T04:13:14.000Z,652.00
2023-08-15T04:14:15.414Z,692.00
2023-08-15T04:15:16.828Z,732.00
2023-08-15T04:16:18.258Z,772.00
2023-08-15T04:17:20.096Z,820.00
2023-08-15T04:18:21.665Z,860.00
2023-08-15T04:19:23.086Z,908.00
2023-08-15T04:20:24.658Z,956.00
2023-08-15T04:21:26.136Z,1004.00
2023-08-15T04:22:27.514Z,1060.00
2023-08-15T04:23:28.971Z,1112.00
2023-08-15T04:24:30.392Z,1168.00
2023-08-15T04:25:32.070Z,1224.00
2023-08-15T04:26:33.452Z,1284.00
2023-08-15T04:27:34.856Z,1352.00
2023-08-15T04:28:36.306Z,1416.00
2023-08-15T04:29:37.686Z,1476.00
2023-08-15T04:30:39.080Z,1544.00
2023-08-15T04:31:40.487Z,1616.00
2023-08-15T04:32:41.875Z,1684.00
2023-08-15T04:33:43.286Z,1756.00
2023-08-15T04:34:44.691Z,1828.00
2023-08-15T04:35:46.111Z,1900.00
2023-08-15T04:36:47.525Z,1968.00
2023-08-15T04:37:48.933Z,2032.00
2023-08-15T04:38:50.367Z,2100.00
2023-08-15T04:39:51.780Z,2164.00
2023-08-15T04:40:53.155Z,2228.00
2023-08-15T04:41:54.548Z,2284.00
2023-08-15T04:42:55.970Z,2344.00
2023-08-15T04:43:57.396Z,2396.00
2023-08-15T04:44:58.779Z,2440.00
2023-08-15T04:46:00.198Z,2472.00
2023-08-15T04:47:01.584Z,2500.00
2023-08-15T04:48:03.098Z,2544.00
2023-08-15T04:49:04.513Z,2600.00
2023-08-15T04:50:05.904Z,2628.00
2023-08-15T04:51:07.388Z,2708.00
2023-08-15T04:52:08.764Z,2768.00
2023-08-15T04:53:10.169Z,2828.00
2023-08-15T04:54:11.599Z,2892.00
2023-08-15T04:55:13.003Z,2972.00
2023-08-15T04:56:14.410Z,3060.00
2023-08-15T04:57:15.835Z,3120.00
2023-08-15T04:58:17.259Z,3180.00
2023-08-15T04:59:18.661Z,3248.00
2023-08-15T05:00:20.094Z,3316.00
2023-08-15T05:01:21.501Z,3384.00
2023-08-15T05:02:22.871Z,3496.00
2023-08-15T05:03:24.244Z,3896.00
2023-08-15T05:04:25.657Z,4280.00
2023-08-15T05:05:27.138Z,4456.00
2023-08-15T05:06:28.529Z,4500.00
2023-08-15T05:07:29.919Z,4540.00
2023-08-15T05:08:31.319Z,4776.00
2023-08-15T05:09:32.750Z,5020.00
2023-08-15T05:10:34.159Z,5168.00
2023-08-15T05:11:35.553Z,5324.00
2023-08-15T05:12:36.954Z,5452.00
2023-08-15T05:13:38.361Z,5604.00
2023-08-15T05:14:39.762Z,5732.00
2023-08-15T05:15:41.220Z,5904.00
2023-08-15T05:16:42.586Z,6056.00
2023-08-15T05:17:44.023Z,6204.00
2023-08-15T05:18:45.389Z,6312.00
2023-08-15T05:19:46.807Z,6424.00
2023-08-15T05:20:48.198Z,6588.00
2023-08-15T05:21:49.610Z,6712.00
2023-08-15T05:22:50.983Z,6840.00
2023-08-15T05:23:52.343Z,6972.00
2023-08-15T05:24:53.768Z,7072.00
2023-08-15T05:25:55.158Z,7156.00
2023-08-15T05:26:56.567Z,7280.00
2023-08-15T05:27:57.943Z,7428.00
2023-08-15T05:28:59.334Z,7568.00
2023-08-15T05:30:00.838Z,7684.00
2023-08-15T05:31:02.294Z,7836.00
2023-08-15T05:32:03.679Z,7924.00
2023-08-15T05:33:05.109Z,8064.00
2023-08-15T05:34:08.304Z,8232.00
2023-08-15T05:35:08.636Z,8336.00
2023-08-15T05:36:10.020Z,8504.00
2023-08-15T05:37:11.409Z,8688.00
2023-08-15T05:38:12.801Z,8844.00
2023-08-15T05:39:14.211Z,8980.00
2023-08-15T05:40:15.627Z,9108.00
2023-08-15T05:41:17.041Z,9240.00
2023-08-15T05:42:18.434Z,9444.00
2023-08-15T05:43:19.849Z,9616.00
2023-08-15T05:44:21.215Z,9828.00
2023-08-15T05:45:22.658Z,10036.00
2023-08-15T05:46:24.078Z,10156.00
2023-08-15T05:47:25.482Z,10188.00
2023-08-15T05:48:26.929Z,10464.00
2023-08-15T05:49:28.336Z,10784.00
2023-08-15T05:50:29.756Z,10976.00
2023-08-15T05:51:31.132Z,10988.00
2023-08-15T05:52:32.527Z,11028.00
2023-08-15T05:53:33.939Z,11264.00
2023-08-15T05:54:35.366Z,11408.00
2023-08-15T05:55:36.767Z,11656.00
2023-08-15T05:56:38.171Z,11956.00
2023-08-15T05:57:39.549Z,12240.00
2023-08-15T05:58:40.930Z,12612.00
2023-08-15T05:59:42.317Z,12680.00
2023-08-15T06:00:43.736Z,12664.00
2023-08-15T06:01:45.115Z,12672.00
2023-08-15T06:02:46.542Z,12844.00
2023-08-15T06:03:53.140Z,13352.00
2023-08-15T06:04:49.830Z,13828.00
2023-08-15T06:05:51.239Z,13696.00
2023-08-15T06:06:52.630Z,13652.00
2023-08-15T06:07:54.049Z,14304.00
2023-08-15T06:08:55.449Z,14688.00
2023-08-15T06:09:56.862Z,14816.00
2023-08-15T06:10:58.300Z,14944.00
2023-08-15T06:11:59.691Z,14976.00
2023-08-15T06:13:01.088Z,15168.00
2023-08-15T06:14:02.505Z,15456.00
2023-08-15T06:15:03.891Z,15808.00
2023-08-15T06:16:05.277Z,16384.00
2023-08-15T06:17:06.720Z,16672.00
2023-08-15T06:18:08.115Z,16800.00
2023-08-15T06:19:09.494Z,16608.00
2023-08-15T06:20:10.894Z,17184.00
2023-08-15T06:21:12.325Z,18080.00
2023-08-15T06:22:13.738Z,18560.00
2023-08-15T06:23:15.132Z,18656.00
2023-08-15T06:24:16.485Z,18432.00
2023-08-15T06:25:17.892Z,18720.00
2023-08-15T06:26:19.324Z,19424.00
2023-08-15T06:27:20.945Z,19424.00
2023-08-15T06:28:23.419Z,19520.00
2023-08-15T06:29:23.714Z,20032.00
2023-08-15T06:30:25.117Z,20384.00
2023-08-15T06:31:26.923Z,20736.00
2023-08-15T06:32:28.353Z,20768.00
2023-08-15T06:33:29.752Z,21024.00
2023-08-15T06:34:31.134Z,21984.00
2023-08-15T06:35:32.534Z,22784.00
2023-08-15T06:36:33.953Z,22816.00
2023-08-15T06:37:35.370Z,23168.00
2023-08-15T06:38:36.762Z,22816.00
2023-08-15T06:39:38.165Z,22944.00
2023-08-15T06:40:39.547Z,24224.00
2023-08-15T06:41:40.968Z,24864.00
2023-08-15T06:42:42.357Z,24672.00
2023-08-15T06:43:43.779Z,24064.00
2023-08-15T06:44:45.175Z,24000.00
2023-08-15T06:45:46.558Z,24896.00
2023-08-15T06:46:48.046Z,24512.00
2023-08-15T06:47:49.441Z,26592.00
2023-08-15T06:48:50.812Z,26336.00
2023-08-15T06:49:52.201Z,26720.00
2023-08-15T06:50:53.602Z,27680.00
2023-08-15T06:51:55.002Z,28480.00
2023-08-15T06:52:56.433Z,31264.00
2023-08-15T06:53:57.814Z,32032.00
2023-08-15T06:54:59.210Z,32800.00
2023-08-15T06:56:00.638Z,34528.00
2023-08-15T06:57:02.049Z,35488.00
2023-08-15T06:58:03.472Z,35840.00
2023-08-15T06:59:04.876Z,31616.00
2023-08-15T07:00:06.241Z,19616.00
2023-08-15T07:01:07.790Z,13084.00
2023-08-15T07:02:09.311Z,12588.00
2023-08-15T07:03:10.781Z,12992.00
2023-08-15T07:04:12.219Z,12792.00
2023-08-15T07:05:13.621Z,13676.00
2023-08-15T07:06:15.009Z,14616.00
2023-08-15T07:07:16.494Z,17100.00
2023-08-15T07:08:17.843Z,17124.00
2023-08-15T07:09:19.260Z,27456.00
2023-08-15T07:10:20.673Z,19424.00
2023-08-15T07:11:22.042Z,32448.00
2023-08-15T07:12:23.685Z,20512.00
2023-08-15T07:13:25.257Z,19296.00
2023-08-15T07:14:26.627Z,30080.00
2023-08-15T07:15:28.032Z,20128.00
2023-08-15T07:16:29.479Z,20640.00
2023-08-15T07:17:30.913Z,17696.00
2023-08-15T07:18:32.355Z,16460.00
2023-08-15T07:19:33.765Z,16388.00
2023-08-15T07:20:35.862Z,17216.00
2023-08-15T07:21:36.927Z,18048.00
2023-08-15T07:22:38.346Z,19648.00
2023-08-15T07:23:39.745Z,45856.00
2023-08-15T07:24:42.051Z,34176.00
2023-08-15T07:25:42.367Z,47232.00
2023-08-15T07:26:43.755Z,47040.00
2023-08-15T07:27:45.185Z,28736.00
2023-08-15T07:28:46.573Z,25792.00
2023-08-15T07:29:47.949Z,25408.00
2023-08-15T07:30:49.344Z,23488.00
2023-08-15T07:31:50.767Z,20288.00
2023-08-15T07:32:52.308Z,18368.00
2023-08-15T07:33:53.660Z,13280.00
2023-08-15T07:34:55.057Z,11304.00
2023-08-15T07:35:56.456Z,10860.00
2023-08-15T07:36:57.855Z,10564.00
2023-08-15T07:38:00.812Z,10756.00
2023-08-15T07:39:00.945Z,11284.00
2023-08-15T07:40:02.370Z,12112.00
2023-08-15T07:41:03.777Z,13152.00
2023-08-15T07:42:05.173Z,14104.00
2023-08-15T07:43:06.576Z,14400.00
2023-08-15T07:44:07.977Z,14340.00
2023-08-15T07:45:09.390Z,14484.00
2023-08-15T07:46:10.852Z,14940.00
2023-08-15T07:47:12.230Z,15460.00
2023-08-15T07:48:13.654Z,24160.00
2023-08-15T07:49:15.069Z,15336.00
2023-08-15T07:50:16.467Z,14048.00
2023-08-15T07:51:17.880Z,13336.00
2023-08-15T07:52:19.288Z,13268.00
2023-08-15T07:53:20.711Z,14332.00
2023-08-15T07:54:22.121Z,14516.00
2023-08-15T07:55:23.510Z,15148.00
2023-08-15T07:56:25.002Z,18368.00
2023-08-15T07:57:26.402Z,19136.00
2023-08-15T07:58:27.834Z,16556.00
2023-08-15T07:59:29.226Z,45152.00
2023-08-15T08:00:30.606Z,32032.00
2023-08-15T08:01:32.050Z,24448.00
2023-08-15T08:02:33.496Z,48576.00
2023-08-15T08:03:34.920Z,49248.00
2023-08-15T08:04:36.327Z,52288.00
2023-08-15T08:05:37.750Z,50208.00
2023-08-15T08:06:41.058Z,50592.00
2023-08-15T08:07:52.240Z,53280.00
2023-08-15T08:08:41.516Z,53600.00
2023-08-15T08:09:42.916Z,55360.00
2023-08-15T08:10:44.927Z,53152.00
2023-08-15T08:11:46.311Z,51168.00
2023-08-15T08:12:47.718Z,50816.00
2023-08-15T08:13:49.134Z,42208.00
2023-08-15T08:14:57.266Z,21664.00
2023-08-15T08:15:52.503Z,23296.00
2023-08-15T08:16:53.856Z,52256.00
2023-08-15T08:17:55.285Z,50560.00
2023-08-15T08:18:56.702Z,55936.00
2023-08-15T08:19:58.104Z,25152.00
2023-08-15T08:20:59.495Z,23968.00
2023-08-15T08:22:00.884Z,60608.00
2023-08-15T08:23:02.287Z,17952.00
2023-08-15T08:24:03.691Z,16992.00
2023-08-15T08:25:05.213Z,16660.00
2023-08-15T08:26:06.750Z,37440.00
2023-08-15T08:27:08.142Z,18016.00
2023-08-15T08:28:09.558Z,19936.00
2023-08-15T08:29:10.962Z,22432.00
2023-08-15T08:30:12.377Z,24640.00
2023-08-15T08:31:13.816Z,37824.00
2023-08-15T08:32:15.223Z,25504.00
2023-08-15T08:33:16.593Z,24448.00
2023-08-15T08:34:18.055Z,26432.00
2023-08-15T08:35:19.466Z,22496.00
2023-08-15T08:36:20.879Z,22496.00
2023-08-15T08:37:22.286Z,23328.00
2023-08-15T08:38:24.817Z,23744.00
2023-08-15T08:39:31.709Z,22752.00
2023-08-15T08:40:26.984Z,20576.00
2023-08-15T08:41:28.400Z,18976.00
2023-08-15T08:42:29.831Z,17696.00
2023-08-15T08:43:31.212Z,16700.00
2023-08-15T08:44:32.634Z,16400.00
2023-08-15T08:45:34.050Z,16684.00
2023-08-15T08:46:35.429Z,17088.00
2023-08-15T08:47:36.828Z,17216.00
2023-08-15T08:48:39.271Z,16804.00
2023-08-15T08:49:39.757Z,16108.00
2023-08-15T08:50:41.140Z,15232.00
2023-08-15T08:51:42.540Z,14220.00
2023-08-15T08:52:43.980Z,13364.00
2023-08-15T08:53:45.351Z,12688.00
2023-08-15T08:54:56.379Z,12172.00
2023-08-15T08:55:48.731Z,11944.00
2023-08-15T08:56:50.102Z,12012.00
2023-08-15T08:57:51.525Z,12008.00
2023-08-15T08:58:52.921Z,11736.00
2023-08-15T08:59:54.368Z,11496.00
2023-08-15T09:00:55.941Z,11412.00
2023-08-15T09:01:57.300Z,11328.00
2023-08-15T09:02:58.839Z,11344.00
2023-08-15T09:04:00.332Z,11336.00
2023-08-15T09:05:01.763Z,11632.00
2023-08-15T09:06:03.174Z,12240.00
2023-08-15T09:07:04.683Z,12940.00
2023-08-15T09:08:06.027Z,13988.00
2023-08-15T09:09:07.601Z,14548.00
2023-08-15T09:10:08.974Z,13276.00
2023-08-15T09:11:10.373Z,11032.00
2023-08-15T09:12:11.787Z,9424.00
2023-08-15T09:13:13.250Z,8424.00
2023-08-15T09:14:14.611Z,7668.00
2023-08-15T09:15:16.025Z,6840.00
2023-08-15T09:16:17.452Z,6724.00
2023-08-15T09:17:18.982Z,7644.00
2023-08-15T09:18:20.563Z,9416.00
2023-08-15T09:19:21.966Z,11808.00
2023-08-15T09:20:23.411Z,14324.00
2023-08-15T09:21:24.819Z,17472.00
2023-08-15T09:22:26.259Z,20416.00
2023-08-15T09:23:27.671Z,26080.00
2023-08-15T09:24:29.083Z,22336.00
2023-08-15T09:25:30.513Z,21408.00
2023-08-15T09:26:31.908Z,21056.00
2023-08-15T09:27:33.283Z,21632.00
2023-08-15T09:28:34.710Z,26112.00
2023-08-15T09:29:36.802Z,71008.00
2023-08-15T09:30:38.248Z,37728.00
2023-08-15T09:31:39.701Z,30752.00
2023-08-15T09:32:41.270Z,26912.00
2023-08-15T09:33:42.674Z,28384.00
2023-08-15T09:34:44.101Z,33056.00
2023-08-15T09:35:57.320Z,20832.00
2023-08-15T09:36:47.428Z,17632.00
2023-08-15T09:37:48.966Z,15904.00
2023-08-15T09:38:50.339Z,15840.00
2023-08-15T09:39:51.719Z,17152.00
2023-08-15T09:40:53.138Z,19168.00
2023-08-15T09:41:54.547Z,20640.00
2023-08-15T09:42:56.019Z,20288.00
2023-08-15T09:43:57.421Z,20864.00
2023-08-15T09:44:58.831Z,68000.00
2023-08-15T09:46:00.427Z,22688.00
2023-08-15T09:47:01.877Z,19008.00
2023-08-15T09:48:03.307Z,18752.00
2023-08-15T09:49:04.776Z,20672.00
2023-08-15T09:50:06.175Z,22464.00
2023-08-15T09:51:07.627Z,23136.00
2023-08-15T09:52:09.025Z,22240.00
2023-08-15T09:53:10.425Z,20960.00
2023-08-15T09:54:11.849Z,20352.00
2023-08-15T09:55:13.315Z,21504.00
2023-08-15T09:56:14.741Z,18432.00
2023-08-15T09:57:16.176Z,17984.00
2023-08-15T09:58:17.563Z,18912.00
2023-08-15T09:59:18.970Z,20064.00
2023-08-15T10:00:20.383Z,25216.00
2023-08-15T10:01:21.854Z,20768.00
2023-08-15T10:02:23.232Z,19648.00
2023-08-15T10:03:24.692Z,19552.00
2023-08-15T10:04:26.038Z,19680.00
2023-08-15T10:05:27.441Z,23712.00
2023-08-15T10:06:28.857Z,29408.00
2023-08-15T10:07:30.305Z,27552.00
2023-08-15T10:08:31.704Z,26368.00
2023-08-15T10:09:33.088Z,28736.00
2023-08-15T10:10:34.485Z,53664.00
2023-08-15T10:11:35.937Z,28896.00
2023-08-15T10:12:37.345Z,23520.00
2023-08-15T10:13:38.740Z,22656.00
2023-08-15T10:14:40.142Z,23392.00
2023-08-15T10:15:41.561Z,23936.00
2023-08-15T10:16:43.024Z,26176.00
2023-08-15T10:17:44.514Z,20864.00
2023-08-15T10:18:45.925Z,27136.00
2023-08-15T10:19:47.320Z,46816.00
2023-08-15T10:20:48.715Z,93152.00
2023-08-15T10:21:50.136Z,84064.00
2023-08-15T10:22:51.548Z,91232.00
2023-08-15T10:23:52.941Z,40256.00
2023-08-15T10:24:54.370Z,92320.00
2023-08-15T10:25:55.789Z,87936.00
2023-08-15T10:26:57.175Z,86752.00
2023-08-15T10:27:58.578Z,82624.00
2023-08-15T10:28:59.985Z,79648.00
2023-08-15T10:30:01.395Z,79680.00
2023-08-15T10:31:02.867Z,77344.00
2023-08-15T10:32:04.275Z,74912.00
2023-08-15T10:33:05.704Z,79488.00
2023-08-15T10:34:07.075Z,60960.00
2023-08-15T10:35:08.505Z,77120.00
2023-08-15T10:36:09.918Z,57440.00
2023-08-15T10:37:11.363Z,80448.00
2023-08-15T10:38:12.811Z,74848.00
2023-08-15T10:39:14.268Z,36480.00
2023-08-15T10:40:15.668Z,39328.00
2023-08-15T10:41:17.111Z,56288.00
2023-08-15T10:42:18.512Z,27648.00
2023-08-15T10:43:19.921Z,72096.00
2023-08-15T10:44:21.309Z,27232.00
2023-08-15T10:45:22.716Z,27616.00
2023-08-15T10:46:24.139Z,92544.00
2023-08-15T10:47:25.605Z,93984.00
2023-08-15T10:48:27.010Z,84096.00
2023-08-15T10:49:28.399Z,82368.00
2023-08-15T10:50:29.858Z,69152.00
2023-08-15T10:51:31.312Z,81152.00
2023-08-15T10:52:32.725Z,80608.00
2023-08-15T10:53:34.132Z,87584.00
2023-08-15T10:54:35.606Z,87744.00
2023-08-15T10:55:37.016Z,85632.00
2023-08-15T10:56:38.446Z,86912.00
2023-08-15T10:57:39.846Z,86656.00
2023-08-15T10:58:42.837Z,85152.00
2023-08-15T10:59:43.213Z,89696.00
2023-08-15T11:00:44.605Z,82848.00
2023-08-15T11:01:46.031Z,85376.00
2023-08-15T11:02:47.449Z,88320.00
2023-08-15T11:03:48.853Z,88160.00
2023-08-15T11:04:50.285Z,90304.00
2023-08-15T11:05:51.664Z,92096.00
2023-08-15T11:06:53.082Z,90656.00
2023-08-15T11:07:54.510Z,89568.00
2023-08-15T11:08:55.919Z,90848.00
2023-08-15T11:09:57.305Z,89632.00
2023-08-15T11:10:58.715Z,90464.00
2023-08-15T11:12:00.140Z,90304.00
2023-08-15T11:13:01.787Z,87328.00
2023-08-15T11:14:03.182Z,88704.00
2023-08-15T11:15:04.631Z,82304.00
2023-08-15T11:16:06.031Z,83968.00
2023-08-15T11:17:07.413Z,81728.00
2023-08-15T11:18:08.848Z,88608.00
2023-08-15T11:19:10.251Z,86592.00
2023-08-15T11:20:11.662Z,83200.00
2023-08-15T11:21:13.124Z,89920.00
2023-08-15T11:22:14.545Z,86496.00
2023-08-15T11:23:15.948Z,82976.00
2023-08-15T11:24:17.601Z,87520.00
2023-08-15T11:25:19.019Z,88960.00
2023-08-15T11:26:20.395Z,86208.00
2023-08-15T11:27:21.929Z,90336.00
2023-08-15T11:28:23.456Z,89120.00
2023-08-15T11:29:24.840Z,85504.00
2023-08-15T11:30:26.226Z,86624.00
2023-08-15T11:31:27.643Z,86336.00
2023-08-15T11:32:29.048Z,80800.00
2023-08-15T11:33:30.459Z,85504.00
2023-08-15T11:34:31.869Z,88320.00
2023-08-15T11:35:33.288Z,84800.00
2023-08-15T11:36:34.796Z,82112.00
2023-08-15T11:37:36.215Z,82752.00
2023-08-15T11:38:37.656Z,87200.00
2023-08-15T11:39:39.079Z,88992.00
2023-08-15T11:40:40.465Z,88608.00
2023-08-15T11:41:41.871Z,86176.00
2023-08-15T11:42:43.255Z,84192.00
2023-08-15T11:43:44.675Z,81152.00
2023-08-15T11:44:46.111Z,79936.00
2023-08-15T11:45:47.526Z,85568.00
2023-08-15T11:46:54.481Z,89216.00
2023-08-15T11:47:50.828Z,89504.00
2023-08-15T11:48:52.284Z,89600.00
2023-08-15T11:49:53.668Z,87136.00
2023-08-15T11:50:55.069Z,84832.00
2023-08-15T11:51:56.454Z,83424.00
2023-08-15T11:52:57.853Z,87968.00
2023-08-15T11:53:59.268Z,82624.00
2023-08-15T11:55:00.657Z,81984.00
2023-08-15T11:56:02.091Z,79840.00
2023-08-15T11:57:03.510Z,76832.00
2023-08-15T11:58:04.901Z,80992.00
2023-08-15T11:59:06.341Z,87552.00
2023-08-15T12:00:07.742Z,79680.00
2023-08-15T12:01:09.161Z,85312.00
2023-08-15T12:02:10.530Z,85632.00
2023-08-15T12:03:12.030Z,85760.00
2023-08-15T12:04:13.609Z,86560.00
2023-08-15T12:05:15.015Z,87040.00
2023-08-15T12:06:16.411Z,86624.00
2023-08-15T12:07:17.813Z,84224.00
2023-08-15T12:08:19.214Z,88672.00
2023-08-15T12:09:20.620Z,86784.00
2023-08-15T12:10:22.032Z,84960.00
2023-08-15T12:11:23.447Z,81824.00
2023-08-15T12:12:25.030Z,80416.00
2023-08-15T12:13:26.589Z,81696.00
2023-08-15T12:14:30.719Z,80960.00
2023-08-15T12:15:29.919Z,79008.00
2023-08-15T12:16:31.318Z,76640.00
2023-08-15T12:17:32.815Z,72032.00
2023-08-15T12:18:34.241Z,80672.00
2023-08-15T12:19:35.683Z,84608.00
2023-08-15T12:20:37.072Z,82400.00
2023-08-15T12:21:38.484Z,81408.00
2023-08-15T12:22:39.874Z,84000.00
2023-08-15T12:23:41.277Z,88192.00
2023-08-15T12:24:42.693Z,87232.00
2023-08-15T12:25:44.114Z,88576.00
2023-08-15T12:26:45.502Z,87392.00
2023-08-15T12:27:46.916Z,85152.00
2023-08-15T12:28:48.319Z,83328.00
2023-08-15T12:30:12.335Z,83008.00
2023-08-15T12:30:51.640Z,83168.00
2023-08-15T12:31:53.135Z,84608.00
2023-08-15T12:32:54.536Z,82176.00
2023-08-15T12:33:55.928Z,84640.00
2023-08-15T12:34:57.405Z,84352.00
2023-08-15T12:35:58.778Z,83072.00
2023-08-15T12:37:00.174Z,83936.00
2023-08-15T12:38:01.583Z,85568.00
2023-08-15T12:39:02.982Z,85536.00
2023-08-15T12:40:07.889Z,82848.00
2023-08-15T12:41:06.342Z,79264.00
2023-08-15T12:42:07.700Z,81632.00
2023-08-15T12:43:09.095Z,78560.00
2023-08-15T12:44:10.517Z,66432.00
2023-08-15T12:45:11.941Z,77376.00
2023-08-15T12:46:13.568Z,75136.00
2023-08-15T12:47:21.163Z,76096.00
2023-08-15T12:48:17.057Z,77728.00
2023-08-15T12:49:18.443Z,78816.00
2023-08-15T12:50:19.879Z,78688.00
2023-08-15T12:51:21.269Z,66912.00
2023-08-15T12:52:22.821Z,70912.00
2023-08-15T12:53:24.401Z,73760.00
2023-08-15T12:54:25.915Z,70496.00
2023-08-15T12:55:27.411Z,76032.00
2023-08-15T12:56:28.784Z,72064.00
2023-08-15T12:57:30.202Z,74208.00
2023-08-15T12:58:31.576Z,80320.00
2023-08-15T12:59:32.984Z,76320.00
2023-08-15T13:00:34.432Z,50048.00
2023-08-15T13:01:36.978Z,28192.00
2023-08-15T13:02:37.774Z,60352.00
2023-08-15T13:03:39.166Z,62784.00
2023-08-15T13:04:40.602Z,43232.00
2023-08-15T13:05:42.031Z,16400.00
2023-08-15T13:06:43.455Z,12948.00
2023-08-15T13:07:44.895Z,12836.00
2023-08-15T13:08:46.300Z,13044.00
2023-08-15T13:09:47.763Z,14236.00
2023-08-15T13:10:49.166Z,15760.00
2023-08-15T13:11:50.583Z,16260.00
2023-08-15T13:12:51.979Z,16140.00
2023-08-15T13:13:53.463Z,16480.00
2023-08-15T13:15:04.187Z,16872.00
2023-08-15T13:15:56.783Z,18528.00
2023-08-15T13:16:58.184Z,21024.00
2023-08-15T13:17:59.558Z,21632.00
2023-08-15T13:19:00.944Z,20448.00
2023-08-15T13:20:02.321Z,18592.00
2023-08-15T13:21:03.756Z,17824.00
2023-08-15T13:22:05.213Z,17888.00
2023-08-15T13:23:06.594Z,17856.00
2023-08-15T13:24:08.054Z,17472.00
2023-08-15T13:25:09.495Z,17112.00
2023-08-15T13:26:10.903Z,16952.00
2023-08-15T13:27:12.295Z,17076.00
2023-08-15T13:28:13.681Z,17376.00
2023-08-15T13:29:15.246Z,17792.00
2023-08-15T13:30:16.638Z,18272.00
2023-08-15T13:31:18.100Z,18208.00
2023-08-15T13:32:19.629Z,18048.00
2023-08-15T13:33:21.199Z,17664.00
2023-08-15T13:34:22.603Z,16888.00
2023-08-15T13:35:23.995Z,15996.00
2023-08-15T13:36:25.440Z,15432.00
2023-08-15T13:37:26.814Z,15516.00
2023-08-15T13:38:28.263Z,16264.00
2023-08-15T13:39:29.663Z,16868.00
2023-08-15T13:40:31.063Z,16804.00
2023-08-15T13:41:32.482Z,16084.00
2023-08-15T13:42:38.779Z,15476.00
2023-08-15T13:43:35.850Z,14928.00
2023-08-15T13:44:37.253Z,14868.00
2023-08-15T13:45:38.676Z,15204.00
2023-08-15T13:46:40.162Z,15556.00
2023-08-15T13:47:41.665Z,15352.00
2023-08-15T13:48:43.027Z,15020.00
2023-08-15T13:49:44.558Z,14644.00
2023-08-15T13:50:45.939Z,14296.00
2023-08-15T13:51:47.350Z,14144.00
2023-08-15T13:52:48.743Z,14240.00
2023-08-15T13:53:50.144Z,14896.00
2023-08-15T13:54:51.538Z,15308.00
2023-08-15T13:55:52.936Z,15180.00
2023-08-15T13:56:55.753Z,14696.00
2023-08-15T13:57:56.330Z,14336.00
2023-08-15T13:58:57.753Z,13752.00
2023-08-15T13:59:59.144Z,13116.00
2023-08-15T14:01:00.539Z,12376.00
2023-08-15T14:02:02.055Z,11812.00
2023-08-15T14:03:03.488Z,11192.00
2023-08-15T14:04:04.862Z,10640.00
2023-08-15T14:05:06.260Z,10148.00
2023-08-15T14:06:07.673Z,9676.00
2023-08-15T14:07:09.083Z,9264.00
2023-08-15T14:08:10.471Z,8844.00
2023-08-15T14:09:11.862Z,8408.00
2023-08-15T14:10:13.440Z,7976.00
2023-08-15T14:11:14.843Z,7540.00
2023-08-15T14:12:16.254Z,7116.00
2023-08-15T14:13:17.645Z,6700.00
2023-08-15T14:14:19.038Z,6300.00
2023-08-15T14:15:20.461Z,5916.00
2023-08-15T14:16:22.155Z,5532.00
2023-08-15T14:17:23.534Z,5184.00
2023-08-15T14:18:24.942Z,4868.00
2023-08-15T14:19:26.349Z,4556.00
2023-08-15T14:20:27.769Z,4268.00
2023-08-15T14:21:29.161Z,4016.00
2023-08-15T14:22:30.587Z,3788.00
2023-08-15T14:23:31.978Z,3588.00
2023-08-15T14:24:33.362Z,3408.00
2023-08-15T14:25:34.782Z,3244.00
2023-08-15T14:26:36.194Z,3084.00
2023-08-15T14:27:37.648Z,2924.00
2023-08-15T14:28:39.052Z,2772.00
2023-08-15T14:29:40.440Z,2644.00
2023-08-15T14:30:41.866Z,2548.00
2023-08-15T14:31:43.256Z,2472.00
2023-08-15T14:32:44.786Z,2392.00
2023-08-15T14:33:46.151Z,2312.00
2023-08-15T14:34:47.551Z,2188.00
2023-08-15T14:35:49.880Z,2036.00
2023-08-15T14:36:50.160Z,1880.00
2023-08-15T14:37:51.573Z,1752.00
2023-08-15T14:38:52.987Z,1656.00
2023-08-15T14:39:54.408Z,1584.00
2023-08-15T14:40:55.815Z,1524.00
2023-08-15T14:41:57.222Z,1464.00
2023-08-15T14:42:58.677Z,1396.00
2023-08-15T14:44:00.067Z,1320.00
2023-08-15T14:45:01.492Z,1264.00
2023-08-15T14:46:02.902Z,1212.00
2023-08-15T14:47:04.308Z,1152.00
2023-08-15T14:48:05.799Z,1100.00
2023-08-15T14:49:07.206Z,1052.00
2023-08-15T14:50:08.621Z,1020.00
2023-08-15T14:51:10.018Z,996.00
2023-08-15T14:52:11.398Z,984.00
2023-08-15T14:53:12.803Z,984.00
2023-08-15T14:54:14.226Z,972.00
2023-08-15T14:55:15.639Z,952.00
2023-08-15T14:56:18.533Z,912.00
2023-08-15T14:57:18.963Z,868.00
2023-08-15T14:58:20.400Z,828.00
2023-08-15T14:59:21.790Z,800.00
2023-08-15T15:00:23.182Z,780.00
2023-08-15T15:01:24.701Z,768.00
2023-08-15T15:02:26.282Z,764.00
2023-08-15T15:03:28.080Z,756.00
2023-08-15T15:04:29.518Z,748.00
2023-08-15T15:05:30.919Z,732.00
2023-08-15T15:06:32.294Z,724.00
2023-08-15T15:07:33.706Z,708.00
2023-08-15T15:08:35.137Z,696.00
2023-08-15T15:09:36.648Z,684.00
2023-08-15T15:10:38.052Z,676.00
2023-08-15T15:11:39.464Z,668.00
2023-08-15T15:12:40.839Z,660.00
2023-08-15T15:13:42.243Z,644.00
2023-08-15T15:14:43.686Z,628.00
2023-08-15T15:15:53.786Z,612.00
2023-08-15T15:16:47.149Z,600.00
2023-08-15T15:17:48.669Z,592.00
2023-08-15T15:18:50.156Z,588.00
2023-08-15T15:19:51.801Z,584.00
2023-08-15T15:20:53.382Z,580.00
2023-08-15T15:21:54.822Z,580.00
2023-08-15T15:22:56.266Z,584.00
2023-08-15T15:23:57.727Z,584.00
2023-08-15T15:24:59.092Z,588.00
2023-08-15T15:26:00.480Z,592.00
2023-08-15T15:27:01.882Z,584.00
2023-08-15T15:28:03.263Z,588.00
2023-08-15T15:29:04.689Z,584.00
2023-08-15T15:30:06.074Z,580.00
2023-08-15T15:31:07.498Z,560.00
2023-08-15T15:32:08.944Z,532.00
2023-08-15T15:33:10.423Z,536.00
2023-08-15T15:34:11.887Z,596.00
2023-08-15T15:35:13.276Z,640.00
2023-08-15T15:36:14.677Z,672.00
2023-08-15T15:37:16.071Z,704.00
2023-08-15T15:38:17.467Z,728.00
2023-08-15T15:39:18.857Z,740.00
2023-08-15T15:40:20.247Z,736.00
2023-08-15T15:41:21.633Z,736.00
2023-08-15T15:42:23.242Z,744.00
2023-08-15T15:43:24.812Z,752.00
2023-08-15T15:44:26.296Z,772.00
2023-08-15T15:45:27.698Z,792.00
2023-08-15T15:46:35.016Z,784.00
2023-08-15T15:47:31.088Z,752.00
2023-08-15T15:48:32.532Z,696.00
2023-08-15T15:49:33.940Z,668.00
2023-08-15T15:50:35.329Z,664.00
2023-08-15T15:51:36.724Z,704.00
2023-08-15T15:52:38.113Z,748.00
2023-08-15T15:53:39.514Z,792.00
2023-08-15T15:54:40.940Z,872.00
2023-08-15T15:55:42.343Z,968.00
2023-08-15T15:56:43.733Z,1044.00
2023-08-15T15:57:45.128Z,1112.00
2023-08-15T15:58:46.516Z,1160.00
2023-08-15T15:59:47.951Z,1192.00
2023-08-15T16:00:49.351Z,1176.00
2023-08-15T16:01:50.755Z,1148.00
2023-08-15T16:02:52.119Z,1116.00